Tolar, New Mexico
Current Conditions -  °F | °C
As of 5:56 AM on Friday 24 Oct 2014 (Local Time) from K4MR Reporting Station
Clear Clear  
Wind Chill: 52°   Ceiling: Unl
Heat Index: 52°   Visibility: 10mi
Dew Point: 50°   Wind: 10mph
Humidity: 91%   Direction: 190°S
Pressure: 30.19"   Gusts: NA
Location:  34.3861°N, 104.044°W
Report Text: K4MR 241156Z AUTO 19009KT 10SM CLR 11/10 A3019 RMK AO2 SLP181 T01120098 10156 20112 53003
Loading
Personal Weather Stations






























Interactive Weather Map
Tropical Storm Tracking
New forecast layout! Learn more

10-Day Weather Forecast

Advertisements
Track Severe Weather on mobile